createdAt,value
2022-09-07T03:41:05.112Z,100.00
2022-09-07T03:44:09.039Z,100.00
2022-09-07T03:47:12.686Z,100.00
2022-09-07T03:50:15.622Z,100.00
2022-09-07T03:53:18.164Z,100.00
2022-09-07T03:56:23.390Z,100.00
2022-09-07T03:59:26.052Z,100.00
2022-09-07T04:02:28.915Z,100.00
2022-09-07T04:05:32.703Z,100.00
2022-09-07T04:08:36.919Z,100.00
2022-09-07T04:11:40.573Z,100.00
2022-09-07T04:14:43.590Z,100.00
2022-09-07T04:17:46.421Z,100.00
2022-09-07T04:20:52.249Z,100.00
2022-09-07T04:23:55.308Z,100.00
2022-09-07T04:26:57.947Z,100.00
2022-09-07T04:30:00.697Z,100.00
2022-09-07T04:33:03.232Z,100.00
2022-09-07T04:36:06.361Z,100.00
2022-09-07T04:39:11.038Z,100.00
2022-09-07T04:42:13.908Z,100.00
2022-09-07T04:45:16.510Z,100.00
2022-09-07T04:48:19.317Z,100.00
2022-09-07T04:51:23.462Z,100.00
2022-09-07T04:54:26.657Z,100.00
2022-09-07T04:57:29.480Z,100.00
2022-09-07T05:00:32.935Z,100.00
2022-09-07T05:03:38.494Z,100.00
2022-09-07T05:06:41.470Z,100.00
2022-09-07T05:09:44.252Z,100.00
2022-09-07T05:12:47.515Z,100.00
2022-09-07T05:15:50.098Z,100.00
2022-09-07T05:18:54.563Z,100.00
2022-09-07T05:21:57.515Z,100.00
2022-09-07T05:25:00.318Z,100.00
2022-09-07T05:28:03.919Z,100.00
2022-09-07T05:31:19.786Z,100.00
2022-09-07T05:37:29.235Z,100.00
2022-09-07T05:40:36.110Z,100.00
2022-09-07T05:47:04.681Z,100.00
2022-09-07T05:50:09.116Z,100.00
2022-09-07T05:53:11.662Z,100.00
2022-09-07T05:56:15.188Z,100.00
2022-09-07T05:59:17.894Z,100.00
2022-09-07T06:02:20.807Z,100.00
2022-09-07T06:05:23.635Z,100.00
2022-09-07T06:08:26.611Z,98.70
2022-09-07T06:11:29.424Z,97.81
2022-09-07T06:14:32.800Z,93.51
2022-09-07T06:17:35.626Z,94.08
2022-09-07T06:20:38.192Z,93.02
2022-09-07T06:23:41.871Z,91.69
2022-09-07T06:26:44.351Z,90.55
2022-09-07T06:29:47.171Z,87.34
2022-09-07T06:32:49.704Z,87.06
2022-09-07T06:35:56.724Z,86.83
2022-09-07T06:39:01.530Z,87.00
2022-09-07T06:42:04.543Z,84.40
2022-09-07T06:45:07.591Z,83.25
2022-09-07T06:48:10.384Z,82.71
2022-09-07T06:51:22.296Z,81.92
2022-09-07T06:57:47.963Z,79.23
2022-09-07T07:00:50.885Z,79.72
2022-09-07T07:03:54.276Z,78.23
2022-09-07T07:06:57.066Z,79.15
2022-09-07T07:09:59.659Z,79.29
2022-09-07T07:13:02.373Z,76.44
2022-09-07T07:16:17.007Z,77.93
2022-09-07T07:19:20.667Z,75.54
2022-09-07T07:22:45.594Z,75.82
2022-09-07T07:25:46.065Z,75.79
2022-09-07T07:29:06.550Z,75.61
2022-09-07T07:32:09.557Z,73.41
2022-09-07T07:35:12.645Z,74.55
2022-09-07T07:41:55.298Z,70.02
2022-09-07T07:51:27.865Z,70.16
2022-09-07T07:54:30.360Z,70.35
2022-09-07T07:57:33.045Z,68.11
2022-09-07T08:00:53.017Z,65.22
2022-09-07T08:03:57.104Z,64.58
2022-09-07T08:06:59.522Z,66.86
2022-09-07T08:10:02.249Z,66.78
2022-09-07T08:13:05.250Z,67.05
2022-09-07T08:16:08.651Z,65.46
2022-09-07T08:19:11.997Z,65.35
2022-09-07T08:22:14.799Z,65.90
2022-09-07T08:25:17.727Z,65.53
2022-09-07T08:28:22.198Z,64.47
2022-09-07T08:31:24.999Z,63.95
2022-09-07T08:34:27.817Z,64.71
2022-09-07T08:37:30.402Z,62.00
2022-09-07T08:40:37.915Z,63.64
2022-09-07T08:43:57.155Z,60.00
2022-09-07T08:47:11.623Z,60.68
2022-09-07T08:50:28.910Z,59.82
2022-09-07T08:53:32.218Z,60.30
2022-09-07T08:56:39.324Z,59.35
2022-09-07T09:00:07.116Z,59.50
2022-09-07T09:03:29.984Z,57.72
2022-09-07T09:07:01.334Z,58.26
2022-09-07T09:10:10.286Z,58.00
2022-09-07T09:13:19.272Z,57.93
2022-09-07T09:16:34.800Z,56.01
2022-09-07T09:20:10.778Z,56.77
2022-09-07T09:23:16.350Z,54.69
2022-09-07T09:26:31.025Z,55.60
2022-09-07T09:29:34.223Z,52.42
2022-09-07T09:32:41.522Z,53.05
2022-09-07T09:35:47.052Z,53.68
2022-09-07T09:38:49.914Z,54.76
2022-09-07T09:41:53.542Z,52.72
2022-09-07T09:45:04.025Z,53.71
2022-09-07T09:48:11.245Z,52.95
2022-09-07T09:54:42.145Z,54.53
2022-09-07T10:01:22.388Z,53.07
2022-09-07T10:04:35.171Z,49.54
2022-09-07T10:07:37.735Z,50.54
2022-09-07T10:10:51.042Z,48.85
2022-09-07T10:13:57.778Z,48.16
2022-09-07T10:17:02.093Z,49.71
2022-09-07T10:20:16.854Z,48.12
2022-09-07T10:23:24.306Z,48.42
2022-09-07T10:26:33.373Z,48.62
2022-09-07T10:29:36.344Z,47.46
2022-09-07T10:32:54.421Z,47.19
2022-09-07T10:36:10.684Z,45.51
2022-09-07T10:39:26.446Z,45.82
2022-09-07T10:42:33.527Z,46.61
2022-09-07T10:45:57.852Z,46.06
2022-09-07T10:49:20.347Z,46.57
2022-09-07T10:52:29.073Z,46.83
2022-09-07T10:55:41.715Z,47.44
2022-09-07T10:59:03.518Z,46.19
2022-09-07T11:02:31.063Z,46.49
2022-09-07T11:05:38.066Z,44.28
2022-09-07T11:09:16.663Z,45.12
2022-09-07T11:12:29.564Z,44.53
2022-09-07T11:15:38.438Z,45.19
2022-09-07T11:22:23.735Z,42.57
2022-09-07T11:25:47.302Z,41.65
2022-09-07T11:32:24.516Z,42.09
2022-09-07T11:36:11.983Z,41.07
2022-09-07T11:39:45.024Z,41.54
2022-09-07T11:42:59.561Z,42.12
2022-09-07T11:46:08.101Z,40.87
2022-09-07T11:49:20.150Z,41.47
2022-09-07T11:52:35.515Z,41.56
2022-09-07T11:55:45.058Z,38.97
2022-09-07T11:58:59.624Z,38.85
2022-09-07T12:02:58.265Z,37.92
2022-09-07T12:06:22.629Z,38.41
2022-09-07T12:09:39.134Z,39.35
2022-09-07T12:12:57.406Z,37.66
2022-09-07T12:16:09.357Z,34.32
2022-09-07T12:19:21.573Z,33.96
2022-09-07T12:22:24.356Z,33.82
2022-09-07T12:25:29.020Z,33.56
2022-09-07T12:28:34.608Z,33.78
2022-09-07T12:31:58.777Z,35.01
2022-09-07T12:35:02.485Z,33.78
2022-09-07T12:38:31.707Z,33.85
2022-09-07T12:41:47.344Z,31.64
2022-09-07T12:45:28.137Z,28.12
2022-09-07T12:49:04.677Z,26.89
2022-09-07T12:52:33.622Z,26.70
2022-09-07T12:56:16.370Z,22.48
2022-09-07T12:59:28.527Z,21.71
2022-09-07T13:02:43.812Z,20.08
2022-09-07T13:06:11.267Z,19.15
2022-09-07T13:09:39.410Z,18.16
2022-09-07T13:12:57.343Z,17.12
2022-09-07T13:16:25.214Z,16.06
2022-09-07T13:20:06.650Z,16.29
2022-09-07T13:23:22.906Z,16.25
2022-09-07T13:26:58.580Z,15.56
2022-09-07T13:30:16.686Z,14.75
2022-09-07T13:33:28.911Z,15.30
2022-09-07T13:36:47.683Z,13.91
2022-09-07T13:39:54.860Z,14.70
2022-09-07T13:42:59.256Z,14.38
2022-09-07T13:46:09.561Z,14.35
2022-09-07T13:49:25.213Z,14.18
2022-09-07T13:52:40.123Z,13.92
2022-09-07T13:56:04.096Z,14.60
2022-09-07T13:59:26.422Z,13.55
2022-09-07T14:02:33.383Z,13.82
2022-09-07T14:05:36.321Z,13.17
2022-09-07T14:08:39.911Z,14.18
2022-09-07T14:11:49.082Z,13.51
2022-09-07T14:15:19.796Z,13.81
2022-09-07T14:18:30.311Z,13.67
2022-09-07T14:21:32.847Z,14.26
2022-09-07T14:24:40.139Z,14.88
2022-09-07T14:27:44.460Z,18.33
2022-09-07T14:30:50.419Z,21.93
2022-09-07T14:33:56.751Z,23.31
2022-09-07T14:37:04.111Z,25.55
2022-09-07T14:40:13.413Z,26.89
2022-09-07T14:43:30.733Z,28.12
2022-09-07T14:46:34.335Z,28.44
2022-09-07T14:49:37.448Z,29.32
2022-09-07T14:53:33.106Z,29.87
2022-09-07T14:56:10.668Z,29.51
2022-09-07T14:59:37.856Z,27.23
2022-09-07T15:02:40.682Z,24.70
2022-09-07T15:05:48.460Z,22.47
2022-09-07T15:08:51.529Z,20.32
2022-09-07T15:12:03.987Z,19.76
2022-09-07T15:15:26.055Z,19.68
2022-09-07T15:18:57.091Z,21.34
2022-09-07T15:22:00.983Z,22.54
